Sardis, South Carolina
Current Conditions -  °F | °C
As of 3:53 AM on Friday 24 Oct 2014 (Local Time) from KFLO Reporting Station
Clear Clear  
Wind Chill: 50°   Ceiling: Unl
Heat Index: 50°   Visibility: 10mi
Dew Point: 43°   Wind: 6mph
Humidity: 77%   Direction: 350°N
Pressure: 30.02"   Gusts: NA
Location:  34.07°N, 79.933°W
Report Text: KFLO 240753Z AUTO 35005KT 10SM CLR 10/06 A3002 RMK AO2 SLP164 T01000061
Loading
Personal Weather Stations






























Interactive Weather Map
Tropical Storm Tracking
New forecast layout! Learn more

10-Day Weather Forecast

Advertisements
Track Severe Weather on mobile